Latest Weather Observations for Darwin

IDD60801

Issued at 6:05 pm CST Wednesday 20 August 2014 (issued every 30 minutes, with the page automatically refreshed every 10 minutes)

About weather observations | Map of weather stations | Latest weather observations for NT | Other Formats
Station Details ID: 014015 Name: DARWIN AIRPORT Lat: -12.42 Lon: 130.89 Height: 30.4 m
Data from the previous 72 hours. | See also: Recent months at Darwin
Date/Time
CST
Temp
°C
App
Temp
°C
Dew
Point
Rel
Hum
%
Delta-T
°C
Wind Press
QNH
hPa
Press
MSL
hPa
Rain
since 9 am
mm
Dir
 
Spd
km/h
Gust
km/h
Spd
kts
Gust
kts
20/06:00pm 26.0 24.0 15.5 52 6.4 N 20 26 11 14 1012.7 1012.5 0.0
20/05:30pm 26.8 24.1 14.7 47 7.3 NNE 22 28 12 15 1012.5 - 0.0
20/05:00pm 27.6 24.6 14.9 45 7.7 N 24 28 13 15 1012.5 - 0.0
20/04:30pm 27.5 24.8 14.6 45 7.8 N 22 30 12 16 1012.4 - 0.0
20/04:00pm 28.4 25.7 14.7 43 8.3 N 22 28 12 15 1012.5 - 0.0
20/03:30pm 28.2 25.8 15.3 45 7.9 N 22 28 12 15 1012.7 - 0.0
20/03:00pm 28.6 25.9 15.6 45 8.0 N 24 30 13 16 1012.8 1012.6 0.0
20/02:30pm 29.6 26.9 15.7 43 8.6 NNW 24 30 13 16 1013.0 - 0.0
20/02:00pm 29.9 25.9 11.9 33 10.5 N 24 33 13 18 1013.4 - 0.0
20/01:30pm 29.0 27.0 12.7 36 9.6 NNE 15 26 8 14 1013.9 - 0.0
20/01:00pm 29.6 26.2 11.2 32 10.6 NE 20 28 11 15 1014.5 - 0.0
20/12:30pm 29.3 26.9 12.6 35 9.8 NNE 17 24 9 13 1014.9 - 0.0
20/12:00pm 28.1 26.4 14.7 44 8.1 NE 17 26 9 14 1015.5 1015.3 0.0
20/11:30am 27.5 25.3 14.3 44 7.9 NE 19 24 10 13 1015.9 - 0.0
20/11:00am 26.1 23.6 14.2 48 7.1 NE 20 28 11 15 1016.3 - 0.0
20/10:30am 25.7 23.0 13.4 46 7.2 NE 20 30 11 16 1016.6 - 0.0
20/10:00am 24.4 21.4 10.5 41 7.7 ENE 17 24 9 13 1016.8 - 0.0
20/09:30am 22.7 18.3 7.5 37 7.9 E 20 28 11 15 1016.6 - 0.0
20/09:00am 21.8 16.2 5.3 34 8.2 E 24 30 13 16 1016.5 1016.3 0.0
20/08:30am 20.0 14.6 4.5 36 7.5 ESE 22 30 12 16 1016.3 - 0.0
20/08:00am 19.8 15.6 5.6 39 7.0 SE 17 24 9 13 1016.0 - 0.0
20/07:30am 18.9 16.6 10.3 57 4.6 SE 13 19 7 10 1015.8 - 0.0
20/07:00am 18.5 16.9 12.8 69 3.2 SSE 13 15 7 8 1015.5 - 0.0
20/06:30am 17.6 16.2 13.3 76 2.4 SSE 13 15 7 8 1015.2 - 0.0
20/06:00am 18.4 17.2 14.0 75 2.5 S 13 15 7 8 1014.8 1014.6 0.0
20/05:30am 16.2 15.6 14.6 90 0.9 S 11 13 6 7 1014.6 - 0.0
20/05:00am 18.4 19.0 16.7 90 1.0 SSW 9 11 5 6 1014.4 - 0.0
20/04:30am 16.6 16.5 14.9 90 1.0 SW 9 13 5 7 1014.3 - 0.0
20/04:00am 17.2 17.7 15.5 90 1.0 SSW 7 7 4 4 1014.3 - 0.0
20/03:30am 18.0 17.9 16.0 88 1.2 SSW 11 11 6 6 1014.4 - 0.0
20/03:00am 18.6 18.7 16.6 88 1.2 SW 11 13 6 7 1014.5 1014.3 0.0
20/02:30am 19.7 20.0 17.1 85 1.6 SW 11 11 6 6 1014.7 - 0.0
20/02:00am 19.8 19.9 17.5 86 1.4 SW 13 15 7 8 1014.9 - 0.0
20/01:30am 19.9 20.0 17.4 85 1.5 SW 13 15 7 8 1015.2 - 0.0
20/01:00am 19.8 19.4 16.3 80 2.1 SSW 13 15 7 8 1015.4 - 0.0
20/12:30am 19.7 19.9 15.8 78 2.3 SW 9 9 5 5 1015.3 - 0.0
20/12:00am 18.8 20.0 13.9 73 2.8 CALM 0 0 0 0 1015.5 1015.3 0.0
 
Date/Time
CST
Temp
°C
App
Temp
°C
Dew
Point
Rel
Hum
%
Delta-T
°C
Wind Press
QNH
hPa
Press
MSL
hPa
Rain
since 9 am
mm
Dir
 
Spd
km/h
Gust
km/h
Spd
kts
Gust
kts
19/11:30pm 18.4 18.2 13.7 74 2.7 SW 7 9 4 5 1015.4 - 0.0
19/11:00pm 19.8 19.0 13.9 69 3.4 S 11 11 6 6 1015.4 - 0.0
19/10:30pm 20.5 19.6 13.7 65 3.9 S 11 11 6 6 1015.4 - 0.0
19/10:00pm 19.4 20.1 13.4 68 3.4 SW 2 7 1 4 1015.2 - 0.0
19/09:30pm 19.7 19.6 14.0 69 3.3 SW 7 9 4 5 1014.9 - 0.0
19/09:00pm 20.8 20.2 13.5 63 4.2 S 9 11 5 6 1014.7 1014.5 0.0
19/08:30pm 22.6 22.2 13.0 54 5.5 S 7 9 4 5 1014.5 - 0.0
19/08:00pm 22.9 21.7 12.8 53 5.8 N 11 15 6 8 1014.0 - 0.0
19/07:30pm 23.1 21.9 14.1 57 5.3 NNE 13 19 7 10 1013.4 - 0.0
19/07:00pm 23.8 22.6 12.9 50 6.3 NNE 11 13 6 7 1013.2 - 0.0
19/06:30pm 25.1 23.2 11.8 43 7.6 N 13 17 7 9 1012.8 - 0.0
19/06:00pm 26.1 23.3 11.5 40 8.3 N 17 22 9 12 1012.8 1012.6 0.0
19/05:30pm 26.8 24.0 11.4 38 8.8 N 17 19 9 10 1012.8 - 0.0
19/05:00pm 27.5 24.3 11.9 38 9.0 N 20 22 11 12 1012.9 - 0.0
19/04:30pm 27.6 24.3 11.6 37 9.2 NNW 20 26 11 14 1013.0 - 0.0
19/04:00pm 27.9 24.7 11.1 35 9.6 NNW 19 28 10 15 1013.1 - 0.0
19/03:30pm 28.3 25.2 12.1 36 9.4 NNW 20 30 11 16 1013.3 - 0.0
19/03:00pm 28.6 24.8 11.1 33 10.0 N 22 28 12 15 1013.6 1013.4 0.0
19/02:30pm 29.0 25.9 11.5 33 10.1 N 19 26 10 14 1013.8 - 0.0
19/02:00pm 29.1 25.8 11.6 33 10.1 NNW 20 28 11 15 1014.3 - 0.0
19/01:30pm 29.4 26.9 8.2 26 11.6 NE 11 17 6 9 1014.8 - 0.0
19/01:00pm 28.4 24.9 8.8 29 10.8 E 17 28 9 15 1015.3 - 0.0
19/12:30pm 28.4 25.1 7.9 27 11.1 ESE 15 22 8 12 1015.9 - 0.0
19/12:00pm 27.8 23.7 8.6 30 10.5 ENE 20 28 11 15 1016.5 1016.3 0.0
19/11:30am 27.0 23.1 10.7 36 9.2 ENE 22 32 12 17 1016.9 - 0.0
19/11:00am 25.8 21.8 10.6 38 8.5 ENE 22 30 12 16 1017.2 - 0.0
19/10:30am 25.0 21.1 10.9 41 7.9 ENE 22 28 12 15 1017.5 - 0.0
19/10:00am 24.5 20.0 10.2 40 7.9 E 24 32 13 17 1017.5 - 0.0
19/09:30am 22.3 16.9 4.6 31 8.7 SE 22 30 12 16 1017.6 - 0.0
19/09:00am 20.7 15.2 3.8 33 8.1 SE 22 28 12 15 1017.6 1017.5 0.0
19/08:30am 19.2 14.3 5.0 39 6.9 SE 20 28 11 15 1017.3 - 0.0
19/08:00am 18.0 15.4 10.7 62 3.9 SE 15 19 8 10 1017.3 - 0.0
19/07:30am 17.5 15.2 11.8 69 3.1 SE 15 19 8 10 1017.0 - 0.0
19/07:00am 17.6 15.8 12.2 70 3.0 SSE 13 17 7 9 1016.5 - 0.0
19/06:30am 16.2 14.4 13.3 83 1.6 SSE 15 15 8 8 1016.2 - 0.0
19/06:00am 15.5 14.3 12.8 84 1.5 SSE 11 13 6 7 1016.0 1015.8 0.0
19/05:30am 16.0 15.0 13.3 84 1.5 SSE 11 11 6 6 1015.8 - 0.0
19/05:00am 16.3 15.4 13.6 84 1.5 SSE 11 13 6 7 1015.6 - 0.0
19/04:30am 16.8 16.0 14.0 83 1.6 SSE 11 13 6 7 1015.6 - 0.0
19/04:00am 18.8 18.0 14.1 74 2.7 S 11 13 6 7 1015.5 - 0.0
19/03:30am 17.6 16.4 13.9 79 2.1 S 13 13 7 7 1015.5 - 0.0
19/03:00am 19.3 17.8 14.1 72 3.0 S 15 15 8 8 1015.5 1015.3 0.0
19/02:30am 19.2 18.2 14.7 75 2.6 S 13 15 7 8 1015.6 - 0.0
19/02:00am 18.9 18.4 15.0 78 2.3 S 11 13 6 7 1015.7 - 0.0
19/01:30am 20.1 19.9 14.8 71 3.1 S 9 11 5 6 1015.9 - 0.0
19/01:00am 20.4 20.4 15.1 71 3.1 S 9 11 5 6 1016.1 - 0.0
19/12:30am 20.4 20.3 16.1 76 2.6 S 11 13 6 7 1016.2 - 0.0
19/12:00am 20.7 20.2 15.8 73 2.9 SSW 13 15 7 8 1016.1 1015.9 0.0
 
Date/Time
CST
Temp
°C
App
Temp
°C
Dew
Point
Rel
Hum
%
Delta-T
°C
Wind Press
QNH
hPa
Press
MSL
hPa
Rain
since 9 am
mm
Dir
 
Spd
km/h
Gust
km/h
Spd
kts
Gust
kts
18/11:30pm 21.1 21.0 15.9 72 3.1 S 11 13 6 7 1016.2 - 0.0
18/11:00pm 20.1 19.7 15.2 73 2.9 SSW 11 13 6 7 1016.3 - 0.0
18/10:30pm 18.5 18.1 14.0 75 2.6 SSW 9 11 5 6 1016.3 - 0.0
18/10:00pm 18.7 18.8 14.4 76 2.5 W 7 9 4 5 1016.1 - 0.0
18/09:30pm 19.0 18.7 13.2 69 3.3 W 7 9 4 5 1016.1 - 0.0
18/09:00pm 20.3 20.5 14.1 67 3.6 WSW 6 7 3 4 1015.8 1015.6 0.0
18/08:30pm 22.3 21.9 14.1 59 4.8 SW 9 11 5 6 1015.6 - 0.0
18/08:00pm 23.1 23.1 14.1 57 5.3 N 7 9 4 5 1015.1 - 0.0
18/07:30pm 23.2 22.1 13.2 53 5.8 N 11 19 6 10 1014.7 - 0.0
18/07:00pm 23.6 22.1 12.0 48 6.6 N 11 15 6 8 1014.4 - 0.0
18/06:30pm 24.9 22.6 10.3 39 8.1 N 13 17 7 9 1014.1 - 0.0
18/06:00pm 26.1 22.9 9.8 35 9.0 N 17 22 9 12 1013.9 1013.7 0.0
18/05:30pm 26.7 23.9 8.7 32 9.8 N 13 17 7 9 1013.8 - 0.0
18/05:00pm 27.5 23.4 8.7 30 10.3 N 20 24 11 13 1013.7 - 0.0
18/04:30pm 27.5 22.5 8.1 29 10.5 N 24 28 13 15 1013.5 - 0.0
18/04:00pm 28.3 23.3 6.6 25 11.5 N 22 28 12 15 1013.5 - 0.0
18/03:30pm 28.8 23.6 5.4 22 12.2 NNW 22 28 12 15 1013.6 - 0.0
18/03:00pm 28.8 24.2 5.4 22 12.2 NNW 19 26 10 14 1013.7 1013.5 0.0
18/02:30pm 29.4 24.3 -2.3 12 14.5 SW 15 26 8 14 1014.0 - 0.0
18/02:00pm 29.4 23.4 -2.9 12 14.6 SSE 19 26 10 14 1014.5 - 0.0
18/01:30pm 28.7 23.6 -1.9 13 14.0 ESE 15 30 8 16 1014.8 - 0.0
18/01:00pm 28.5 22.5 -3.4 12 14.2 E 19 30 10 16 1015.3 - 0.0
18/12:30pm 27.8 21.9 -2.4 13 13.6 ESE 19 26 10 14 1015.9 - 0.0
18/12:00pm 27.6 20.8 -2.0 14 13.4 E 24 35 13 19 1016.5 1016.3 0.0
18/11:30am 26.6 18.3 -0.5 17 12.5 E 33 41 18 22 1016.9 - 0.0
18/11:00am 26.2 17.9 -1.5 16 12.5 E 32 39 17 21 1017.5 - 0.0
18/10:30am 25.2 16.6 -2.6 16 12.2 E 33 44 18 24 1017.8 - 0.0
18/10:00am 24.7 16.4 -1.6 17 11.7 ESE 32 41 17 22 1017.9 - 0.0
18/09:30am 24.4 16.1 -0.5 19 11.3 E 33 41 18 22 1017.9 - 0.0
18/09:00am 22.4 16.4 -1.3 20 10.4 ESE 20 26 11 14 1017.7 1017.6 0.0
18/08:30am 20.0 13.6 -1.9 23 9.3 ESE 22 28 12 15 1017.5 - 0.0
18/08:00am 17.9 11.5 -1.7 26 8.2 SE 22 28 12 15 1017.0 - 0.0
18/07:30am 17.3 11.2 -2.5 26 8.1 SE 20 28 11 15 1016.6 - 0.0
18/07:00am 17.1 11.2 -2.5 26 8.0 SE 19 26 10 14 1016.1 - 0.0
18/06:30am 17.5 11.5 -2.9 24 8.3 SE 19 24 10 13 1015.9 - 0.0
18/06:00am 18.0 12.3 -3.6 22 8.7 SE 17 24 9 13 1015.7 1015.5 0.0
18/05:30am 18.5 12.9 -2.9 23 8.8 ESE 17 20 9 11 1015.4 - 0.0
18/05:00am 18.8 12.9 -1.9 24 8.7 SE 19 24 10 13 1015.3 - 0.0
18/04:30am 19.2 13.6 0.1 27 8.4 SE 19 24 10 13 1015.4 - 0.0
18/04:00am 19.0 15.3 7.9 48 5.7 SE 17 22 9 12 1015.3 - 0.0
18/03:30am 18.3 15.5 10.0 58 4.4 SSE 15 19 8 10 1015.0 - 0.0
18/03:00am 16.9 15.5 13.5 80 1.9 SSE 13 15 7 8 1015.2 1015.0 0.0
18/02:30am 17.0 16.7 14.4 85 1.5 SE 9 11 5 6 1015.3 - 0.0
18/02:00am 16.1 15.7 14.2 88 1.1 SSE 9 11 5 6 1015.4 - 0.0
18/01:30am 15.6 15.4 13.5 87 1.2 SSE 7 9 4 5 1015.7 - 0.0
18/01:00am 15.6 16.6 13.1 85 1.4 CALM 0 0 0 0 1015.8 - 0.0
18/12:30am 15.9 15.4 12.6 81 1.8 SW 7 7 4 4 1015.9 - 0.0
18/12:00am 16.3 16.9 13.1 81 1.8 SW 2 7 1 4 1015.8 1015.6 0.0
 
Date/Time
CST
Temp
°C
App
Temp
°C
Dew
Point
Rel
Hum
%
Delta-T
°C
Wind Press
QNH
hPa
Press
MSL
hPa
Rain
since 9 am
mm
Dir
 
Spd
km/h
Gust
km/h
Spd
kts
Gust
kts
17/11:30pm 16.3 16.8 12.9 80 1.9 SW 2 7 1 4 1015.9 - 0.0
17/11:00pm 16.8 16.3 12.5 76 2.4 SW 7 9 4 5 1016.0 - 0.0
17/10:30pm 17.6 17.3 12.8 73 2.7 SW 6 7 3 4 1015.9 - 0.0
17/10:00pm 17.9 17.7 13.1 73 2.7 SSW 6 7 3 4 1015.8 - 0.0
17/09:30pm 18.0 17.6 12.4 70 3.1 SW 6 9 3 5 1015.5 - 0.0
17/09:00pm 19.1 18.2 12.7 66 3.6 WSW 9 11 5 6 1015.2 1015.0 0.0
17/08:30pm 20.9 20.2 13.2 61 4.4 W 9 9 5 5 1014.9 - 0.0
17/08:00pm 22.2 22.0 13.6 58 5.0 NW 7 9 4 5 1014.3 - 0.0
17/07:30pm 22.1 20.8 11.3 50 6.0 WNW 9 11 5 6 1014.0 - 0.0
17/07:00pm 23.6 22.0 10.1 42 7.4 NNW 9 11 5 6 1013.6 - 0.0
17/06:30pm 24.8 21.9 8.1 34 8.9 NNW 13 17 7 9 1013.3 - 0.0

Other Formats:

Comma delimited format used in spreadsheet applications
http://www.bom.gov.au/fwo/IDD60801/IDD60801.94120.axf

JavaScript Object Notation format (JSON) in row-major order
http://www.bom.gov.au/fwo/IDD60801/IDD60801.94120.json